Time,TemperatureF,DewpointF,PressureIn,WindDirection,WindDirectionDegrees,WindSpeedMPH,WindSpeedGustMPH,Humidity,HourlyPrecipIn,Conditions,Clouds,dailyrainin,SolarRadiationWatts/m^2,SoftwareType,DateUTC
2013-02-27 00:11:00,34.0,11.0,-100.00,ENE,65,2.0,8.0,37,0.00,,,0.00,0.000000,,2013-02-27 08:11:00,
2013-02-27 00:21:00,34.0,11.0,-100.00,ENE,65,2.0,8.0,37,0.00,,,0.00,0.000000,,2013-02-27 08:21:00,
2013-02-27 00:31:00,34.0,11.0,-100.00,ENE,65,2.0,8.0,37,0.00,,,0.00,0.000000,,2013-02-27 08:31:00,
2013-02-27 00:41:00,34.0,11.0,-100.00,ENE,65,2.0,8.0,37,0.00,,,0.00,0.000000,,2013-02-27 08:41:00,
2013-02-27 01:11:00,34.0,9.0,-100.00,NE,51,3.0,6.0,35,0.00,,,0.00,0.000000,,2013-02-27 09:11:00,
2013-02-27 01:21:00,34.0,9.0,-100.00,NE,51,3.0,6.0,35,0.00,,,0.00,0.000000,,2013-02-27 09:21:00,
2013-02-27 01:32:00,34.0,9.0,-100.00,NE,51,3.0,6.0,35,0.00,,,0.00,0.000000,,2013-02-27 09:32:00,
2013-02-27 01:41:00,34.0,9.0,-100.00,NE,51,3.0,6.0,35,0.00,,,0.00,0.000000,,2013-02-27 09:41:00,
2013-02-27 01:51:00,34.0,9.0,-100.00,NE,51,3.0,6.0,35,0.00,,,0.00,0.000000,,2013-02-27 09:51:00,
2013-02-27 01:52:00,34.0,6.0,-100.00,ENE,58,5.0,13.0,30,0.00,,,0.00,0.000000,,2013-02-27 09:52:00,
2013-02-27 02:12:00,34.0,6.0,-100.00,ENE,58,5.0,13.0,30,0.00,,,0.00,0.000000,,2013-02-27 10:12:00,
2013-02-27 02:21:00,34.0,6.0,-100.00,ENE,58,5.0,13.0,30,0.00,,,0.00,0.000000,,2013-02-27 10:21:00,
2013-02-27 02:32:00,34.0,6.0,-100.00,ENE,58,5.0,13.0,30,0.00,,,0.00,0.000000,,2013-02-27 10:32:00,
2013-02-27 02:42:00,34.0,6.0,-100.00,ENE,58,5.0,13.0,30,0.00,,,0.00,0.000000,,2013-02-27 10:42:00,
2013-02-27 02:52:00,34.0,4.0,-100.00,NE,48,4.0,9.0,28,0.00,,,0.00,0.000000,,2013-02-27 10:52:00,
2013-02-27 03:22:00,34.0,4.0,-100.00,NE,48,4.0,9.0,28,0.00,,,0.00,0.000000,,2013-02-27 11:22:00,
2013-02-27 03:32:00,34.0,4.0,-100.00,NE,48,4.0,9.0,28,0.00,,,0.00,0.000000,,2013-02-27 11:32:00,
2013-02-27 03:41:00,34.0,4.0,-100.00,NE,48,4.0,9.0,28,0.00,,,0.00,0.000000,,2013-02-27 11:41:00,
2013-02-27 03:52:00,34.0,4.0,-100.00,NE,53,5.0,11.0,27,0.00,,,-99.99,0.000000,,2013-02-27 11:52:00,
2013-02-27 04:22:00,34.0,4.0,-100.00,NE,53,5.0,11.0,27,0.00,,,-99.99,0.000000,,2013-02-27 12:22:00,
2013-02-27 04:32:00,34.0,4.0,-100.00,NE,53,5.0,11.0,27,0.00,,,-99.99,0.000000,,2013-02-27 12:32:00,
2013-02-27 04:42:00,34.0,4.0,-100.00,NE,53,5.0,11.0,27,0.00,,,-99.99,0.000000,,2013-02-27 12:42:00,
2013-02-27 04:52:00,34.0,4.0,-100.00,ENE,57,4.0,10.0,27,0.00,,,0.00,0.000000,,2013-02-27 12:52:00,
2013-02-27 05:22:00,34.0,4.0,-100.00,ENE,57,4.0,10.0,27,0.00,,,0.00,0.000000,,2013-02-27 13:22:00,
2013-02-27 05:32:00,34.0,4.0,-100.00,ENE,57,4.0,10.0,27,0.00,,,0.00,0.000000,,2013-02-27 13:32:00,
2013-02-27 05:42:00,34.0,4.0,-100.00,ENE,57,4.0,10.0,27,0.00,,,0.00,0.000000,,2013-02-27 13:42:00,
2013-02-27 05:52:00,33.0,3.0,-100.00,NE,54,4.0,11.0,27,0.00,,,0.00,0.000000,,2013-02-27 13:52:00,
2013-02-27 06:21:00,33.0,3.0,-100.00,NE,54,4.0,11.0,27,0.00,,,0.00,0.000000,,2013-02-27 14:21:00,
2013-02-27 06:31:00,33.0,3.0,-100.00,NE,54,4.0,11.0,27,0.00,,,0.00,0.000000,,2013-02-27 14:31:00,
2013-02-27 06:42:00,33.0,3.0,-100.00,NE,54,4.0,11.0,27,0.00,,,0.00,0.000000,,2013-02-27 14:42:00,
2013-02-27 07:12:00,34.0,4.0,-100.00,NE,55,4.0,11.0,27,0.00,,,0.00,6.000000,,2013-02-27 15:12:00,
2013-02-27 07:22:00,34.0,4.0,-100.00,NE,55,4.0,11.0,27,0.00,,,0.00,6.000000,,2013-02-27 15:22:00,
2013-02-27 07:32:00,34.0,4.0,-100.00,NE,55,4.0,11.0,27,0.00,,,0.00,6.000000,,2013-02-27 15:32:00,
2013-02-27 07:41:00,34.0,4.0,-100.00,NE,55,4.0,11.0,27,0.00,,,0.00,6.000000,,2013-02-27 15:41:00,
2013-02-27 07:51:00,34.0,4.0,-100.00,NE,55,4.0,11.0,27,0.00,,,0.00,6.000000,,2013-02-27 15:51:00,
2013-02-27 08:11:00,37.0,4.0,-100.00,NE,53,4.0,11.0,24,0.00,,,0.00,55.000000,,2013-02-27 16:11:00,
2013-02-27 08:22:00,37.0,4.0,-100.00,NE,53,4.0,11.0,24,0.00,,,0.00,55.000000,,2013-02-27 16:22:00,
2013-02-27 08:32:00,37.0,4.0,-100.00,NE,53,4.0,11.0,24,0.00,,,0.00,55.000000,,2013-02-27 16:32:00,
2013-02-27 08:42:00,37.0,4.0,-100.00,NE,53,4.0,11.0,24,0.00,,,0.00,55.000000,,2013-02-27 16:42:00,
2013-02-27 08:51:00,37.0,4.0,-100.00,NE,53,4.0,11.0,24,0.00,,,0.00,55.000000,,2013-02-27 16:51:00,
2013-02-27 08:52:00,40.0,6.0,-100.00,NE,54,5.0,12.0,24,0.00,,,-99.99,314.000000,,2013-02-27 16:52:00,
2013-02-27 09:21:00,40.0,6.0,-100.00,NE,54,5.0,12.0,24,0.00,,,-99.99,314.000000,,2013-02-27 17:21:00,
2013-02-27 09:32:00,40.0,6.0,-100.00,NE,54,5.0,12.0,24,0.00,,,-99.99,314.000000,,2013-02-27 17:32:00,
2013-02-27 09:41:00,40.0,6.0,-100.00,NE,54,5.0,12.0,24,0.00,,,-99.99,314.000000,,2013-02-27 17:41:00,
2013-02-27 10:11:00,43.0,9.0,-100.00,ENE,65,5.0,14.0,24,0.00,,,-99.99,612.000000,,2013-02-27 18:11:00,
2013-02-27 10:22:00,43.0,9.0,-100.00,ENE,65,5.0,14.0,24,0.00,,,-99.99,612.000000,,2013-02-27 18:22:00,
2013-02-27 10:32:00,43.0,9.0,-100.00,ENE,65,5.0,14.0,24,0.00,,,-99.99,612.000000,,2013-02-27 18:32:00,
2013-02-27 10:42:00,43.0,9.0,-100.00,ENE,65,5.0,14.0,24,0.00,,,-99.99,612.000000,,2013-02-27 18:42:00,
2013-02-27 10:51:00,43.0,9.0,-100.00,ENE,65,5.0,14.0,24,0.00,,,-99.99,612.000000,,2013-02-27 18:51:00,
2013-02-27 11:21:00,45.0,10.0,-100.00,ENE,69,4.0,13.0,24,0.00,,,0.00,764.000000,,2013-02-27 19:21:00,
2013-02-27 11:32:00,45.0,10.0,-100.00,ENE,69,4.0,13.0,24,0.00,,,0.00,764.000000,,2013-02-27 19:32:00,
2013-02-27 11:42:00,45.0,10.0,-100.00,ENE,69,4.0,13.0,24,0.00,,,0.00,764.000000,,2013-02-27 19:42:00,
2013-02-27 11:51:00,45.0,10.0,-100.00,ENE,69,4.0,13.0,24,0.00,,,0.00,764.000000,,2013-02-27 19:51:00,
2013-02-27 11:52:00,45.0,9.0,-100.00,East,90,4.0,12.0,23,0.00,,,0.00,854.000000,,2013-02-27 19:52:00,
2013-02-27 12:21:00,45.0,9.0,-100.00,East,90,4.0,12.0,23,0.00,,,0.00,854.000000,,2013-02-27 20:21:00,
2013-02-27 12:31:00,45.0,9.0,-100.00,East,90,4.0,12.0,23,0.00,,,0.00,854.000000,,2013-02-27 20:31:00,
2013-02-27 12:41:00,45.0,9.0,-100.00,East,90,4.0,12.0,23,0.00,,,0.00,854.000000,,2013-02-27 20:41:00,
2013-02-27 13:11:00,46.0,10.0,-100.00,ENE,67,5.0,11.0,23,0.00,,,-99.99,860.000000,,2013-02-27 21:11:00,
2013-02-27 13:21:00,46.0,10.0,-100.00,ENE,67,5.0,11.0,23,0.00,,,-99.99,860.000000,,2013-02-27 21:21:00,
2013-02-27 13:31:00,46.0,10.0,-100.00,ENE,67,5.0,11.0,23,0.00,,,-99.99,860.000000,,2013-02-27 21:31:00,
2013-02-27 13:41:00,46.0,10.0,-100.00,ENE,67,5.0,11.0,23,0.00,,,-99.99,860.000000,,2013-02-27 21:41:00,
2013-02-27 13:51:00,46.0,10.0,-100.00,ENE,67,5.0,11.0,23,0.00,,,-99.99,860.000000,,2013-02-27 21:51:00,
2013-02-27 14:11:00,46.0,9.0,-100.00,East,80,4.0,10.0,22,0.00,,,0.00,809.000000,,2013-02-27 22:11:00,
2013-02-27 14:21:00,46.0,9.0,-100.00,East,80,4.0,10.0,22,0.00,,,0.00,809.000000,,2013-02-27 22:21:00,
2013-02-27 14:31:00,46.0,9.0,-100.00,East,80,4.0,10.0,22,0.00,,,0.00,809.000000,,2013-02-27 22:31:00,
2013-02-27 14:41:00,46.0,9.0,-100.00,East,80,4.0,10.0,22,0.00,,,0.00,809.000000,,2013-02-27 22:41:00,
2013-02-27 14:51:00,46.0,9.0,-100.00,East,80,4.0,10.0,22,0.00,,,0.00,809.000000,,2013-02-27 22:51:00,
2013-02-27 14:52:00,46.0,8.0,-100.00,ENE,73,4.0,14.0,21,0.00,,,0.00,696.000000,,2013-02-27 22:52:00,
2013-02-27 15:21:00,46.0,8.0,-100.00,ENE,73,4.0,14.0,21,0.00,,,0.00,696.000000,,2013-02-27 23:21:00,
2013-02-27 15:31:00,46.0,8.0,-100.00,ENE,73,4.0,14.0,21,0.00,,,0.00,696.000000,,2013-02-27 23:31:00,
2013-02-27 15:42:00,46.0,8.0,-100.00,ENE,73,4.0,14.0,21,0.00,,,0.00,696.000000,,2013-02-27 23:42:00,
2013-02-27 16:11:00,46.0,6.0,-100.00,ENE,67,4.0,10.0,19,0.00,,,0.00,515.000000,,2013-02-28 00:11:00,
2013-02-27 16:21:00,46.0,6.0,-100.00,ENE,67,4.0,10.0,19,0.00,,,0.00,515.000000,,2013-02-28 00:21:00,
2013-02-27 16:32:00,46.0,6.0,-100.00,ENE,67,4.0,10.0,19,0.00,,,0.00,515.000000,,2013-02-28 00:32:00,
2013-02-27 16:42:00,46.0,6.0,-100.00,ENE,67,4.0,10.0,19,0.00,,,0.00,515.000000,,2013-02-28 00:42:00,
2013-02-27 16:51:00,46.0,6.0,-100.00,ENE,67,4.0,10.0,19,0.00,,,0.00,515.000000,,2013-02-28 00:51:00,
2013-02-27 17:21:00,42.0,8.0,-100.00,ENE,67,3.0,7.0,24,0.00,,,0.00,159.000000,,2013-02-28 01:21:00,
2013-02-27 17:31:00,42.0,8.0,-100.00,ENE,67,3.0,7.0,24,0.00,,,0.00,159.000000,,2013-02-28 01:31:00,
2013-02-27 17:41:00,42.0,8.0,-100.00,ENE,67,3.0,7.0,24,0.00,,,0.00,159.000000,,2013-02-28 01:41:00,
2013-02-27 17:51:00,42.0,8.0,-100.00,ENE,67,3.0,7.0,24,0.00,,,0.00,159.000000,,2013-02-28 01:51:00,
2013-02-27 18:11:00,38.0,7.0,-100.00,ENE,62,3.0,9.0,27,0.00,,,0.00,17.000000,,2013-02-28 02:11:00,
2013-02-27 18:22:00,38.0,7.0,-100.00,ENE,62,3.0,9.0,27,0.00,,,0.00,17.000000,,2013-02-28 02:22:00,
2013-02-27 18:31:00,38.0,7.0,-100.00,ENE,62,3.0,9.0,27,0.00,,,0.00,17.000000,,2013-02-28 02:31:00,
2013-02-27 18:41:00,38.0,7.0,-100.00,ENE,62,3.0,9.0,27,0.00,,,0.00,17.000000,,2013-02-28 02:41:00,
2013-02-27 18:51:00,38.0,7.0,-100.00,ENE,62,3.0,9.0,27,0.00,,,0.00,17.000000,,2013-02-28 02:51:00,
2013-02-27 19:21:00,38.0,4.0,-100.00,NE,50,4.0,12.0,24,0.00,,,0.00,0.000000,,2013-02-28 03:21:00,
2013-02-27 19:31:00,38.0,4.0,-100.00,NE,50,4.0,12.0,24,0.00,,,0.00,0.000000,,2013-02-28 03:31:00,
2013-02-27 19:41:00,38.0,4.0,-100.00,NE,50,4.0,12.0,24,0.00,,,0.00,0.000000,,2013-02-28 03:41:00,
2013-02-27 19:51:00,38.0,4.0,-100.00,NE,50,4.0,12.0,24,0.00,,,0.00,0.000000,,2013-02-28 03:51:00,
2013-02-27 20:11:00,36.0,4.0,-100.00,ENE,57,3.0,7.0,25,0.00,,,0.00,0.000000,,2013-02-28 04:11:00,
2013-02-27 20:21:00,36.0,4.0,-100.00,ENE,57,3.0,7.0,25,0.00,,,0.00,0.000000,,2013-02-28 04:21:00,
2013-02-27 20:31:00,36.0,4.0,-100.00,ENE,57,3.0,7.0,25,0.00,,,0.00,0.000000,,2013-02-28 04:31:00,
2013-02-27 20:41:00,36.0,4.0,-100.00,ENE,57,3.0,7.0,25,0.00,,,0.00,0.000000,,2013-02-28 04:41:00,
2013-02-27 20:51:00,36.0,4.0,-100.00,ENE,57,3.0,7.0,25,0.00,,,0.00,0.000000,,2013-02-28 04:51:00,
2013-02-27 21:11:00,36.0,4.0,-100.00,ENE,61,3.0,9.0,25,0.00,,,0.00,0.000000,,2013-02-28 05:11:00,
2013-02-27 21:22:00,36.0,4.0,-100.00,ENE,61,3.0,9.0,25,0.00,,,0.00,0.000000,,2013-02-28 05:22:00,
2013-02-27 21:31:00,36.0,4.0,-100.00,ENE,61,3.0,9.0,25,0.00,,,0.00,0.000000,,2013-02-28 05:31:00,
2013-02-27 21:42:00,36.0,4.0,-100.00,ENE,61,3.0,9.0,25,0.00,,,0.00,0.000000,,2013-02-28 05:42:00,
2013-02-27 21:51:00,36.0,4.0,-100.00,ENE,61,3.0,9.0,25,0.00,,,0.00,0.000000,,2013-02-28 05:51:00,
2013-02-27 22:11:00,39.0,1.0,-100.00,ENE,58,4.0,11.0,20,0.00,,,0.00,0.000000,,2013-02-28 06:11:00,
2013-02-27 22:22:00,39.0,1.0,-100.00,ENE,58,4.0,11.0,20,0.00,,,0.00,0.000000,,2013-02-28 06:22:00,
2013-02-27 22:32:00,39.0,1.0,-100.00,ENE,58,4.0,11.0,20,0.00,,,0.00,0.000000,,2013-02-28 06:32:00,
2013-02-27 22:41:00,39.0,1.0,-100.00,ENE,58,4.0,11.0,20,0.00,,,0.00,0.000000,,2013-02-28 06:41:00,
2013-02-27 22:51:00,39.0,1.0,-100.00,ENE,58,4.0,11.0,20,0.00,,,0.00,0.000000,,2013-02-28 06:51:00,
2013-02-27 23:21:00,40.0,-1.0,-100.00,NE,53,5.0,12.0,17,0.00,,,0.00,0.000000,,2013-02-28 07:21:00,
2013-02-27 23:31:00,40.0,-1.0,-100.00,NE,53,5.0,12.0,17,0.00,,,0.00,0.000000,,2013-02-28 07:31:00,
2013-02-27 23:41:00,40.0,-1.0,-100.00,NE,53,5.0,12.0,17,0.00,,,0.00,0.000000,,2013-02-28 07:41:00,
2013-02-27 23:51:00,40.0,-1.0,-100.00,NE,53,5.0,12.0,17,0.00,,,0.00,0.000000,,2013-02-28 07:51:00,
2013-02-27 23:52:00,38.0,-1.0,-100.00,NE,56,4.0,10.0,19,0.00,,,0.00,0.000000,,2013-02-28 07:52:00,